KSEP/SEP METAR and TAF weather

Enter ICAO airport designator
Station Type Date Time Source
KSEP METAR 2021/09/25 03:15 UTC NOAA

KSEP 250315Z AUTO 00000KT 10SM CLR 21/07 A3009 RMK AO2 T02100070


Station Type Date Time Source
KSEP Decoded METAR 2021/09/25 03:15 UTC NOAA

Stephenville, Clark Field Municipal Airport, TX, United States (KSEP) 32-13N 098-11W 402M
Sep 24, 2021 - 11:15 PM EDT / 2021.09.25 0315 UTC
Wind: Calm:0
Visibility: 10 mile(s):0
Sky conditions: clear
Temperature: 69.8 F (21.0 C)
Dew Point: 44.6 F (7.0 C)
Relative Humidity: 40%
Pressure (altimeter): 30.09 in. Hg (1018 hPa)
ob: KSEP 250315Z AUTO 00000KT 10SM CLR 21/07 A3009 RMK AO2 T02100070
cycle: 3

Station Type Date Time Source
KSEP TAF UTC NOAA

Error!

Example: see airport list